createdAt,value
2022-11-08T00:02:23.857Z,12.70
2022-11-08T00:04:50.569Z,12.80
2022-11-08T00:07:35.821Z,12.60
2022-11-08T00:10:21.158Z,12.40
2022-11-08T00:13:06.724Z,12.40
2022-11-08T00:15:38.506Z,12.40
2022-11-08T00:18:06.802Z,12.40
2022-11-08T00:20:33.972Z,12.50
2022-11-08T00:23:00.582Z,12.50
2022-11-08T00:25:27.274Z,12.50
2022-11-08T00:27:53.880Z,12.40
2022-11-08T00:30:20.815Z,12.30
2022-11-08T00:32:47.388Z,12.30
2022-11-08T00:35:13.996Z,12.20
2022-11-08T00:37:40.579Z,12.30
2022-11-08T00:40:07.582Z,12.20
2022-11-08T00:42:34.179Z,12.20
2022-11-08T00:45:00.806Z,12.30
2022-11-08T00:47:27.411Z,12.40
2022-11-08T00:49:54.056Z,12.40
2022-11-08T00:52:20.628Z,12.40
2022-11-08T00:54:47.225Z,12.40
2022-11-08T00:57:13.819Z,12.40
2022-11-08T00:59:40.436Z,12.40
2022-11-08T01:02:07.119Z,12.30
2022-11-08T01:04:33.798Z,12.40
2022-11-08T01:07:00.476Z,12.40
2022-11-08T01:09:27.122Z,12.40
2022-11-08T01:11:53.759Z,12.30
2022-11-08T01:14:20.399Z,12.30
2022-11-08T01:16:47.056Z,12.30
2022-11-08T01:19:13.668Z,12.30
2022-11-08T01:21:40.267Z,12.30
2022-11-08T01:24:07.322Z,12.30
2022-11-08T01:26:34.124Z,12.20
2022-11-08T01:29:00.748Z,12.20
2022-11-08T01:31:29.768Z,12.20
2022-11-08T01:33:57.397Z,12.10
2022-11-08T01:36:26.395Z,12.10
2022-11-08T01:38:54.063Z,12.10
2022-11-08T01:41:22.705Z,12.10
2022-11-08T01:43:54.831Z,12.10
2022-11-08T01:46:33.304Z,12.10
2022-11-08T01:49:06.076Z,12.10
2022-11-08T01:51:52.603Z,12.10
2022-11-08T01:54:45.642Z,12.00
2022-11-08T01:57:17.577Z,12.00
2022-11-08T01:59:47.231Z,12.00
2022-11-08T02:02:13.938Z,11.90
2022-11-08T02:04:42.087Z,11.70
2022-11-08T02:07:10.837Z,11.70
2022-11-08T02:09:39.960Z,11.60
2022-11-08T02:12:08.485Z,11.50
2022-11-08T02:14:37.201Z,11.50
2022-11-08T02:17:04.807Z,11.50
2022-11-08T02:19:45.992Z,11.50
2022-11-08T02:22:28.984Z,11.50
2022-11-08T02:24:58.327Z,11.40
2022-11-08T02:27:25.737Z,11.40
2022-11-08T02:29:54.513Z,11.30
2022-11-08T02:32:21.829Z,11.30
2022-11-08T02:34:58.907Z,11.30
2022-11-08T02:37:26.973Z,11.30
2022-11-08T02:39:53.595Z,11.30
2022-11-08T02:42:20.747Z,11.30
2022-11-08T02:44:48.300Z,11.20
2022-11-08T02:47:15.511Z,11.20
2022-11-08T02:49:42.489Z,11.20
2022-11-08T02:52:09.393Z,11.20
2022-11-08T02:54:35.963Z,11.30
2022-11-08T02:57:02.526Z,11.30
2022-11-08T02:59:29.152Z,11.20
2022-11-08T03:01:55.859Z,11.20
2022-11-08T03:04:22.642Z,11.20
2022-11-08T03:06:49.246Z,11.20
2022-11-08T03:09:16.023Z,11.20
2022-11-08T03:11:42.670Z,11.20
2022-11-08T03:14:09.326Z,11.20
2022-11-08T03:16:35.947Z,11.20
2022-11-08T03:19:02.528Z,11.20
2022-11-08T03:21:29.090Z,11.20
2022-11-08T03:23:56.084Z,11.10
2022-11-08T03:26:22.698Z,11.10
2022-11-08T03:28:49.255Z,11.10
2022-11-08T03:31:15.910Z,11.20
2022-11-08T03:33:42.508Z,11.10
2022-11-08T03:36:09.401Z,11.20
2022-11-08T03:38:35.971Z,11.20
2022-11-08T03:41:02.628Z,11.20
2022-11-08T03:43:29.218Z,11.20
2022-11-08T03:45:55.758Z,11.20
2022-11-08T03:48:23.702Z,11.20
2022-11-08T03:50:51.776Z,11.20
2022-11-08T03:53:18.873Z,11.20
2022-11-08T03:55:45.517Z,11.20
2022-11-08T03:58:12.327Z,11.20
2022-11-08T04:00:39.015Z,11.20
2022-11-08T04:03:05.675Z,11.20
2022-11-08T04:05:32.844Z,11.20
2022-11-08T04:08:01.080Z,11.10
2022-11-08T04:10:27.944Z,11.10
2022-11-08T04:13:13.212Z,11.20
2022-11-08T04:15:40.041Z,11.20
2022-11-08T04:18:25.463Z,11.20
2022-11-08T04:21:10.918Z,11.20
2022-11-08T04:23:37.785Z,11.10
2022-11-08T04:26:07.105Z,11.10
2022-11-08T04:28:37.732Z,11.20
2022-11-08T04:31:07.411Z,11.10
2022-11-08T04:33:34.202Z,11.10
2022-11-08T04:36:09.680Z,11.00
2022-11-08T04:38:36.890Z,11.00
2022-11-08T04:41:09.629Z,11.10
2022-11-08T04:43:36.553Z,11.00
2022-11-08T04:46:11.724Z,11.00
2022-11-08T04:48:38.458Z,11.00
2022-11-08T04:51:06.278Z,11.00
2022-11-08T04:53:33.257Z,10.90
2022-11-08T04:56:04.508Z,11.00
2022-11-08T04:58:36.238Z,11.00
2022-11-08T05:01:04.451Z,10.90
2022-11-08T05:03:31.773Z,11.00
2022-11-08T05:06:03.283Z,11.00
2022-11-08T05:08:30.207Z,11.00
2022-11-08T05:11:08.366Z,10.90
2022-11-08T05:13:35.717Z,10.90
2022-11-08T05:16:08.083Z,11.00
2022-11-08T05:18:35.008Z,11.00
2022-11-08T05:21:21.361Z,11.00
2022-11-08T05:23:49.335Z,11.00
2022-11-08T05:26:17.722Z,10.90
2022-11-08T05:28:44.824Z,10.90
2022-11-08T05:31:11.603Z,10.90
2022-11-08T05:33:38.268Z,11.00
2022-11-08T05:36:08.306Z,11.00
2022-11-08T05:38:35.396Z,11.00
2022-11-08T05:41:11.796Z,11.00
2022-11-08T05:43:38.810Z,11.00
2022-11-08T05:46:05.848Z,11.00
2022-11-08T05:48:32.631Z,10.90
2022-11-08T05:50:59.503Z,10.90
2022-11-08T05:53:26.277Z,10.90
2022-11-08T05:56:03.339Z,11.00
2022-11-08T05:58:32.068Z,11.00
2022-11-08T06:01:02.319Z,11.00
2022-11-08T06:03:29.792Z,11.00
2022-11-08T06:06:01.038Z,11.00
2022-11-08T06:08:27.627Z,10.90
2022-11-08T06:10:54.204Z,10.80
2022-11-08T06:13:20.785Z,10.80
2022-11-08T06:15:47.339Z,10.80
2022-11-08T06:18:13.924Z,10.90
2022-11-08T06:20:40.498Z,10.80
2022-11-08T06:23:07.093Z,10.80
2022-11-08T06:25:33.833Z,10.80
2022-11-08T06:28:01.054Z,10.80
2022-11-08T06:30:27.670Z,10.70
2022-11-08T06:32:54.236Z,10.80
2022-11-08T06:35:20.815Z,10.70
2022-11-08T06:37:47.907Z,10.80
2022-11-08T06:40:14.595Z,10.80
2022-11-08T06:42:41.162Z,10.70
2022-11-08T06:45:08.022Z,10.70
2022-11-08T06:47:34.603Z,10.60
2022-11-08T06:50:01.273Z,10.70
2022-11-08T06:52:27.870Z,10.70
2022-11-08T06:54:54.482Z,10.70
2022-11-08T06:57:21.035Z,10.70
2022-11-08T06:59:47.684Z,10.70
2022-11-08T07:02:14.412Z,10.70
2022-11-08T07:04:41.208Z,10.70
2022-11-08T07:07:07.862Z,10.70
2022-11-08T07:09:34.540Z,10.70
2022-11-08T07:12:01.402Z,10.80
2022-11-08T07:14:27.978Z,10.80
2022-11-08T07:16:54.560Z,10.80
2022-11-08T07:19:21.162Z,10.80
2022-11-08T07:21:47.812Z,10.80
2022-11-08T07:24:14.383Z,10.80
2022-11-08T07:26:41.035Z,10.90
2022-11-08T07:29:10.060Z,10.80
2022-11-08T07:31:38.885Z,10.80
2022-11-08T07:34:05.466Z,10.90
2022-11-08T07:36:32.038Z,11.00
2022-11-08T07:39:02.424Z,11.00
2022-11-08T07:41:32.171Z,11.00
2022-11-08T07:43:58.868Z,11.10
2022-11-08T07:46:25.481Z,11.10
2022-11-08T07:48:52.152Z,11.10
2022-11-08T07:51:18.796Z,11.20
2022-11-08T07:53:45.384Z,11.20
2022-11-08T07:56:12.011Z,11.20
2022-11-08T07:58:38.735Z,11.20
2022-11-08T08:01:06.864Z,11.20
2022-11-08T08:03:33.514Z,11.30
2022-11-08T08:06:01.509Z,11.40
2022-11-08T08:08:29.200Z,11.40
2022-11-08T08:11:00.798Z,11.50
2022-11-08T08:13:28.019Z,11.50
2022-11-08T08:15:58.819Z,11.60
2022-11-08T08:18:25.491Z,11.80
2022-11-08T08:20:52.095Z,11.90
2022-11-08T08:23:19.363Z,12.00
2022-11-08T08:25:46.288Z,12.00
2022-11-08T08:28:13.016Z,12.10
2022-11-08T08:30:41.368Z,12.10
2022-11-08T08:33:33.460Z,12.20
2022-11-08T08:36:01.682Z,12.20
2022-11-08T08:38:29.089Z,12.20
2022-11-08T08:40:55.712Z,12.20
2022-11-08T08:43:23.016Z,12.30
2022-11-08T08:45:50.186Z,12.30
2022-11-08T08:48:17.265Z,12.30
2022-11-08T08:50:43.853Z,12.30
2022-11-08T08:53:10.559Z,12.30
2022-11-08T08:55:39.698Z,12.30
2022-11-08T08:58:06.269Z,12.30
2022-11-08T09:03:20.204Z,12.40
2022-11-08T09:05:47.565Z,12.40
2022-11-08T09:08:15.013Z,12.40
2022-11-08T09:10:41.858Z,12.50
2022-11-08T09:13:08.487Z,12.50
2022-11-08T09:15:35.146Z,12.50
2022-11-08T09:18:01.831Z,12.60
2022-11-08T09:20:28.509Z,12.60
2022-11-08T09:22:55.295Z,12.60
2022-11-08T09:25:21.927Z,12.70
2022-11-08T09:27:48.488Z,12.70
2022-11-08T09:30:15.048Z,12.80
2022-11-08T09:35:28.981Z,12.90
2022-11-08T09:37:56.131Z,12.90
2022-11-08T09:40:49.623Z,12.90
2022-11-08T09:43:35.408Z,12.90
2022-11-08T09:46:02.222Z,12.90
2022-11-08T09:48:35.181Z,12.90
2022-11-08T09:51:09.862Z,12.90
2022-11-08T09:54:03.422Z,13.00
2022-11-08T09:56:32.700Z,13.00
2022-11-08T09:59:06.395Z,13.00
2022-11-08T10:01:35.248Z,13.10
2022-11-08T10:04:23.601Z,13.20
2022-11-08T10:07:15.880Z,13.30
2022-11-08T10:10:07.157Z,13.30
2022-11-08T10:12:44.256Z,13.40
2022-11-08T10:15:46.540Z,13.50
2022-11-08T10:18:35.082Z,13.60
2022-11-08T10:21:37.177Z,13.60
2022-11-08T10:24:23.733Z,13.70
2022-11-08T10:26:52.616Z,13.80
2022-11-08T10:29:29.422Z,13.90
2022-11-08T10:32:05.415Z,14.00
2022-11-08T10:34:41.223Z,14.10
2022-11-08T10:37:13.291Z,14.10
2022-11-08T10:39:49.962Z,14.20
2022-11-08T10:42:25.501Z,14.20
2022-11-08T10:44:53.080Z,14.20
2022-11-08T10:47:29.683Z,14.30
2022-11-08T10:50:03.659Z,14.30
2022-11-08T10:52:39.240Z,14.40
2022-11-08T10:55:09.303Z,14.40
2022-11-08T10:57:44.996Z,14.50
2022-11-08T11:00:20.439Z,14.60
2022-11-08T11:02:51.867Z,14.70
2022-11-08T11:05:18.467Z,14.80
2022-11-08T11:08:14.281Z,14.90
2022-11-08T11:10:46.344Z,14.90
2022-11-08T11:13:14.660Z,14.90
2022-11-08T11:16:14.011Z,15.00
2022-11-08T11:18:50.422Z,15.00
2022-11-08T11:21:19.200Z,15.00
2022-11-08T11:23:54.862Z,15.00
2022-11-08T11:26:31.990Z,15.00
2022-11-08T11:29:04.921Z,15.00
2022-11-08T11:31:32.392Z,15.00
2022-11-08T11:34:00.557Z,15.00
2022-11-08T11:36:30.951Z,15.00
2022-11-08T11:39:13.619Z,15.00
2022-11-08T11:41:49.218Z,15.00
2022-11-08T11:44:39.870Z,15.00
2022-11-08T11:47:24.672Z,15.00
2022-11-08T11:49:54.290Z,15.10
2022-11-08T11:52:20.937Z,15.20
2022-11-08T11:54:49.473Z,15.30
2022-11-08T11:57:31.028Z,15.30
2022-11-08T12:00:12.932Z,15.40
2022-11-08T12:02:45.590Z,15.50
2022-11-08T12:05:14.979Z,15.50
2022-11-08T12:08:08.840Z,15.70
2022-11-08T12:10:35.385Z,15.80
2022-11-08T12:13:14.986Z,16.00
2022-11-08T12:15:50.538Z,16.10
2022-11-08T12:18:41.562Z,16.20
2022-11-08T12:21:21.441Z,16.30
2022-11-08T12:24:20.681Z,16.10
2022-11-08T12:27:00.198Z,16.10
2022-11-08T12:30:03.213Z,16.10
2022-11-08T12:32:32.647Z,16.10
2022-11-08T12:35:10.802Z,16.10
2022-11-08T12:37:57.250Z,16.20
2022-11-08T12:40:42.528Z,16.40
2022-11-08T12:43:23.618Z,16.50
2022-11-08T12:46:14.871Z,16.70
2022-11-08T12:48:48.505Z,16.90
2022-11-08T12:51:39.727Z,16.90
2022-11-08T12:54:25.147Z,17.10
2022-11-08T12:56:53.911Z,17.10
2022-11-08T12:59:27.866Z,17.00
2022-11-08T13:01:55.355Z,17.00
2022-11-08T13:04:43.244Z,16.90
2022-11-08T13:07:39.416Z,17.00
2022-11-08T13:10:43.290Z,16.90
2022-11-08T13:13:34.768Z,16.90
2022-11-08T13:16:15.325Z,16.90
2022-11-08T13:18:46.366Z,16.80
2022-11-08T13:21:28.017Z,16.70
2022-11-08T13:24:43.016Z,16.70
2022-11-08T13:27:23.413Z,16.80
2022-11-08T13:29:51.688Z,16.70
2022-11-08T13:32:44.227Z,16.60
2022-11-08T13:35:37.540Z,16.60
2022-11-08T13:38:14.078Z,16.50
2022-11-08T13:41:11.695Z,16.50
2022-11-08T13:43:38.883Z,16.60
2022-11-08T13:46:22.605Z,16.50
2022-11-08T13:48:58.262Z,16.40
2022-11-08T13:51:31.662Z,16.40
2022-11-08T13:54:20.931Z,16.40
2022-11-08T13:56:58.617Z,16.40
2022-11-08T13:59:31.447Z,16.30
2022-11-08T14:02:00.742Z,16.40
2022-11-08T14:04:30.169Z,16.40
2022-11-08T14:07:23.786Z,16.40
2022-11-08T14:10:15.009Z,16.40
2022-11-08T14:12:56.659Z,16.40
2022-11-08T14:15:31.066Z,16.40
2022-11-08T14:18:24.170Z,16.40
2022-11-08T14:20:51.070Z,16.50
2022-11-08T14:23:21.116Z,16.60
2022-11-08T14:26:12.813Z,16.40
2022-11-08T14:28:47.320Z,16.50
2022-11-08T14:31:27.738Z,16.40
2022-11-08T14:33:55.126Z,16.40
2022-11-08T14:36:23.255Z,16.40
2022-11-08T14:39:03.832Z,16.40
2022-11-08T14:41:33.044Z,16.30
2022-11-08T14:44:01.469Z,16.30
2022-11-08T14:46:36.144Z,16.30
2022-11-08T14:49:13.225Z,16.30
2022-11-08T14:51:40.706Z,16.30
2022-11-08T14:54:37.219Z,16.30
2022-11-08T14:57:03.888Z,16.30
2022-11-08T14:59:30.475Z,16.30
2022-11-08T15:01:58.124Z,16.40
2022-11-08T15:04:25.927Z,16.50
2022-11-08T15:06:55.863Z,16.40
2022-11-08T15:09:36.275Z,16.40
2022-11-08T15:12:13.129Z,16.40
2022-11-08T15:14:48.988Z,16.30
2022-11-08T15:17:37.173Z,16.30
2022-11-08T15:20:24.040Z,16.30
2022-11-08T15:22:55.460Z,16.30
2022-11-08T15:25:37.152Z,16.30
2022-11-08T15:28:16.479Z,16.20
2022-11-08T15:30:45.905Z,16.10
2022-11-08T15:33:32.186Z,16.10
2022-11-08T15:35:59.853Z,16.10
2022-11-08T15:38:30.158Z,16.10
2022-11-08T15:41:01.819Z,16.10
2022-11-08T15:43:31.236Z,16.10
2022-11-08T15:46:03.374Z,16.00
2022-11-08T15:48:30.528Z,16.10
2022-11-08T15:50:57.718Z,16.00
2022-11-08T15:53:26.265Z,16.10
2022-11-08T15:55:55.899Z,16.10
2022-11-08T15:58:34.838Z,16.10
2022-11-08T16:01:03.587Z,16.10
2022-11-08T16:03:31.024Z,16.00
2022-11-08T16:05:57.860Z,16.10
2022-11-08T16:08:24.817Z,16.10
2022-11-08T16:10:58.000Z,16.00
2022-11-08T16:13:28.013Z,16.00
2022-11-08T16:15:55.124Z,15.90
2022-11-08T16:18:21.944Z,15.90
2022-11-08T16:20:48.597Z,15.80
2022-11-08T16:23:15.517Z,15.70
2022-11-08T16:25:45.131Z,15.70
2022-11-08T16:28:29.892Z,15.70
2022-11-08T16:30:57.011Z,15.70
2022-11-08T16:33:26.407Z,15.60
2022-11-08T16:35:58.861Z,15.60
2022-11-08T16:38:29.113Z,15.70
2022-11-08T16:40:56.395Z,15.70
2022-11-08T16:43:23.065Z,15.70
2022-11-08T16:46:06.913Z,15.70
2022-11-08T16:48:36.455Z,15.70
2022-11-08T16:51:05.658Z,15.70
2022-11-08T16:53:32.841Z,15.70
2022-11-08T16:55:59.576Z,15.70
2022-11-08T16:58:27.851Z,15.80
2022-11-08T17:00:55.555Z,15.80
2022-11-08T17:03:30.734Z,15.80
2022-11-08T17:05:57.928Z,15.90
2022-11-08T17:08:25.280Z,15.90
2022-11-08T17:10:52.866Z,15.90
2022-11-08T17:13:20.271Z,15.90
2022-11-08T17:15:47.866Z,16.00
2022-11-08T17:18:17.223Z,15.90
2022-11-08T17:20:44.176Z,15.90
2022-11-08T17:23:11.786Z,15.80
2022-11-08T17:25:44.057Z,15.90
2022-11-08T17:28:12.031Z,15.90
2022-11-08T17:30:43.978Z,15.90
2022-11-08T17:33:12.640Z,15.80
2022-11-08T17:35:42.808Z,15.80
2022-11-08T17:38:11.385Z,15.70
2022-11-08T17:40:37.998Z,15.80
2022-11-08T17:43:04.563Z,15.70
2022-11-08T17:45:31.211Z,15.60
2022-11-08T17:47:57.816Z,15.70
2022-11-08T17:50:24.649Z,15.60
2022-11-08T17:52:54.567Z,15.60
2022-11-08T17:55:21.228Z,15.50
2022-11-08T17:57:48.064Z,15.50
2022-11-08T18:00:15.371Z,15.50
2022-11-08T18:02:42.019Z,15.60
2022-11-08T18:05:08.729Z,15.70
2022-11-08T18:07:35.297Z,15.60
2022-11-08T18:10:02.660Z,15.50
2022-11-08T18:12:31.456Z,15.40
2022-11-08T18:14:58.043Z,15.40
2022-11-08T18:17:26.873Z,15.40
2022-11-08T18:19:53.448Z,15.40
2022-11-08T18:22:20.033Z,15.40
2022-11-08T18:24:49.082Z,15.30
2022-11-08T18:27:16.931Z,15.40
2022-11-08T18:29:43.515Z,15.40
2022-11-08T18:32:10.289Z,15.40
2022-11-08T18:34:36.977Z,15.30
2022-11-08T18:37:03.542Z,15.30
2022-11-08T18:39:30.191Z,15.30
2022-11-08T18:41:56.785Z,15.30
2022-11-08T18:44:23.353Z,15.30
2022-11-08T18:46:50.024Z,15.30
2022-11-08T18:49:16.657Z,15.30
2022-11-08T18:51:43.333Z,15.20
2022-11-08T18:54:10.076Z,15.20
2022-11-08T18:56:36.767Z,15.20
2022-11-08T18:59:03.469Z,15.30
2022-11-08T19:01:30.531Z,15.20
2022-11-08T19:03:57.178Z,15.20
2022-11-08T19:06:23.765Z,15.20
2022-11-08T19:08:50.411Z,15.20
2022-11-08T19:11:21.236Z,15.20
2022-11-08T19:13:49.330Z,15.20
2022-11-08T19:16:29.306Z,15.30
2022-11-08T19:19:02.296Z,15.20
2022-11-08T19:21:38.165Z,15.20
2022-11-08T19:24:13.882Z,15.20
2022-11-08T19:26:57.419Z,15.10
2022-11-08T19:29:31.515Z,15.20
2022-11-08T19:32:00.780Z,15.20
2022-11-08T19:34:40.876Z,15.20
2022-11-08T19:37:08.140Z,15.30
2022-11-08T19:39:45.629Z,15.30
2022-11-08T19:42:57.541Z,15.20
2022-11-08T19:45:36.349Z,15.20
2022-11-08T19:48:38.707Z,15.20
2022-11-08T19:57:04.668Z,15.20
2022-11-08T20:02:37.656Z,15.10
2022-11-08T20:05:52.696Z,15.10
2022-11-08T20:11:50.658Z,15.10
2022-11-08T20:14:26.116Z,15.10
2022-11-08T20:17:06.048Z,15.20
2022-11-08T20:19:44.707Z,15.10
2022-11-08T20:22:23.185Z,15.10
2022-11-08T20:24:53.507Z,15.10
2022-11-08T20:27:22.656Z,15.30
2022-11-08T20:29:57.742Z,15.30
2022-11-08T20:32:33.604Z,15.30
2022-11-08T20:35:09.614Z,15.20
2022-11-08T20:37:40.736Z,15.10
2022-11-08T20:40:45.302Z,15.20
2022-11-08T20:43:12.222Z,15.30
2022-11-08T20:45:48.724Z,15.30
2022-11-08T20:48:15.381Z,15.30
2022-11-08T20:50:42.019Z,15.20
2022-11-08T20:53:08.652Z,15.20
2022-11-08T20:55:35.222Z,15.20
2022-11-08T20:58:01.865Z,15.10
2022-11-08T21:00:51.888Z,15.10
2022-11-08T21:03:18.851Z,15.10
2022-11-08T21:06:00.320Z,15.10
2022-11-08T21:11:15.313Z,15.00
2022-11-08T21:13:43.591Z,15.00
2022-11-08T21:16:28.753Z,15.00
2022-11-08T21:18:57.439Z,14.90
2022-11-08T21:21:24.525Z,14.90
2022-11-08T21:23:51.601Z,15.00
2022-11-08T21:26:19.186Z,14.90
2022-11-08T21:28:46.142Z,14.80
2022-11-08T21:31:13.193Z,14.80
2022-11-08T21:33:39.985Z,14.80
2022-11-08T21:36:07.431Z,14.80
2022-11-08T21:38:38.124Z,14.80
2022-11-08T21:41:07.290Z,14.70
2022-11-08T21:43:42.739Z,14.70
2022-11-08T21:46:24.179Z,14.70
2022-11-08T21:48:59.042Z,14.70
2022-11-08T21:51:26.826Z,14.70
2022-11-08T21:53:55.929Z,14.60
2022-11-08T21:56:28.702Z,14.60
2022-11-08T21:58:55.446Z,14.60
2022-11-08T22:01:26.963Z,14.60
2022-11-08T22:03:56.516Z,14.60
2022-11-08T22:06:23.160Z,14.60
2022-11-08T22:08:49.884Z,14.60
2022-11-08T22:11:16.486Z,14.60
2022-11-08T22:13:43.091Z,14.60
2022-11-08T22:16:09.842Z,14.50
2022-11-08T22:18:58.692Z,14.60
2022-11-08T22:21:40.007Z,14.60
2022-11-08T22:24:08.421Z,14.60
2022-11-08T22:26:35.211Z,14.60
2022-11-08T22:29:03.184Z,14.70
2022-11-08T22:31:30.137Z,14.80
2022-11-08T22:33:56.936Z,14.80
2022-11-08T22:36:23.536Z,14.70
2022-11-08T22:38:50.262Z,14.70
2022-11-08T22:41:18.667Z,14.70
2022-11-08T22:43:46.179Z,14.60
2022-11-08T22:46:13.341Z,14.60
2022-11-08T22:48:40.047Z,14.60
2022-11-08T22:51:07.328Z,14.50
2022-11-08T22:53:34.396Z,14.50
2022-11-08T22:56:01.057Z,14.50
2022-11-08T22:58:28.844Z,14.50
2022-11-08T23:00:55.519Z,14.40
2022-11-08T23:03:22.894Z,14.40
2022-11-08T23:05:55.215Z,14.50
2022-11-08T23:08:26.464Z,14.40
2022-11-08T23:11:12.415Z,14.40
2022-11-08T23:13:58.347Z,14.50
2022-11-08T23:16:37.761Z,14.40
2022-11-08T23:19:39.998Z,14.50
2022-11-08T23:22:29.906Z,14.50
2022-11-08T23:24:56.647Z,14.50
2022-11-08T23:27:42.126Z,14.50
2022-11-08T23:30:30.966Z,14.50
2022-11-08T23:32:57.651Z,14.50
2022-11-08T23:35:24.380Z,14.50
2022-11-08T23:37:51.033Z,14.50
2022-11-08T23:40:37.709Z,14.40
2022-11-08T23:43:25.001Z,14.40
2022-11-08T23:45:52.069Z,14.40
2022-11-08T23:48:18.728Z,14.50
2022-11-08T23:50:53.768Z,14.50
2022-11-08T23:53:24.935Z,14.40
2022-11-08T23:55:52.603Z,14.40
2022-11-08T23:58:19.638Z,14.40
